Time;durP1;ratioP1;P1;durP2;ratioP2;P2;SDS_P1;SDS_P2;PMS_P1;PMS_P2;Temp;Humidity;BMP_temperature;BMP_pressure;BME280_temperature;BME280_humidity;BME280_pressure;Samples;Min_cycle;Max_cycle;Signal;HPM_P1;HPM_P2
2023/08/31 00:01:00;;;;;;;;;;;;;;;;;;5091720;28;5006;-54
2023/08/31 00:03:26;;;;;;;;;;;;;;;;;;5089000;28;5069;-57
2023/08/31 00:05:51;;;;;;;;;;;;;;;;;;5089652;28;4966;-54
2023/08/31 00:08:17;;;;;;;;;;;;;;;;;;5089689;28;5146;-53
2023/08/31 00:10:42;;;;;;;;;;;;;;;;;;5100335;28;1156;-54
2023/08/31 00:13:08;;;;;;;;;;;;;;;;;;5093488;28;5060;-54
2023/08/31 00:15:35;;;;;;;;;;;;;;;;;;5095049;28;4882;-53
2023/08/31 00:18:00;;;;;;;;;;;;;;;;;;5090580;28;4752;-54
2023/08/31 00:20:26;;;;;;;;;;;;;;;;;;5091880;28;5023;-52
2023/08/31 00:22:51;;;;;;;;;;;;;;;;;;5093462;28;1234;-52
2023/08/31 00:25:17;;;;;;;;;;;;;;;;;;5087030;28;5159;-54
2023/08/31 00:27:42;;;;;;;;;;;;;;;;;;5075431;28;5027;-53
2023/08/31 00:30:08;;;;;;;;;;;;;;;;;;5085332;28;4530;-53
2023/08/31 00:32:34;;;;;;;;;;;;;;;;;;5093313;28;5133;-53
2023/08/31 00:34:59;;;;;;;;;;;;;;;;;;5076754;28;3291;-51
2023/08/31 00:37:25;;;;;;;;;;;;;;;;;;5098710;28;4989;-54
2023/08/31 00:39:52;;;;;;;;;;;;;;;;;;5091815;28;4944;-53
2023/08/31 00:42:18;;;;;;;;;;;;;;;;;;5093976;28;5022;-52
2023/08/31 00:44:43;;;;;;;;;;;;;;;;;;5090706;28;4452;-53
2023/08/31 00:47:08;;;;;;;;;;;;;;;;;;5094971;28;5165;-54
2023/08/31 00:49:34;;;;;;;;;;;;;;;;;;5084798;28;1125;-54
2023/08/31 00:52:00;;;;;;;;;;;;;;;;;;5097352;28;4810;-51
2023/08/31 00:54:26;;;;;;;;;;;;;;;;;;5095054;28;4980;-54
2023/08/31 00:56:55;;;;;;;;;;;;;;;;;;5074603;28;4981;-54
2023/08/31 00:59:20;;;;;;;;;;;;;;;;;;5067058;28;5022;-53
2023/08/31 01:01:56;;;;;;;;;;;;;;;;;;5078938;28;1910;-54
2023/08/31 01:04:36;;;;;;;;;;;;;;;;;;5057071;28;4606;-54
2023/08/31 01:07:02;;;;;;;;;;;;;;;;;;5084786;28;4804;-54
2023/08/31 01:09:41;;;;;;;;;;;;;;;;;;5076174;28;4837;-54
2023/08/31 01:12:10;;;;;;;;;;;;;;;;;;5080602;28;4747;-54
2023/08/31 01:14:42;;;;;;;;;;;;;;;;;;5068148;28;5025;-54
2023/08/31 01:17:07;;;;;;;;;;;;;;;;;;5076497;28;1437;-54
2023/08/31 01:19:33;;;;;;;;;;;;;;;;;;5081641;28;5076;-52
2023/08/31 01:21:59;;;;;;;;;;;;;;;;;;5082131;28;5022;-53
2023/08/31 01:24:25;;;;;;;;;;;;;;;;;;5071119;28;5051;-55
2023/08/31 01:26:50;;;;;;;;;;;;;;;;;;5072358;28;5106;-55
2023/08/31 01:29:15;;;;;;;;;;;;;;;;;;5068611;28;5083;-53
2023/08/31 01:31:45;;;;;;;;;;;;;;;;;;5051911;28;5030;-54
2023/08/31 01:34:10;;;;;;;;;;;;;;;;;;5068265;28;5163;-52
2023/08/31 01:36:36;;;;;;;;;;;;;;;;;;5078884;28;4946;-54
2023/08/31 01:39:06;;;;;;;;;;;;;;;;;;5054066;28;5040;-53
2023/08/31 01:41:31;;;;;;;;;;;;;;;;;;5074760;28;5163;-54
2023/08/31 01:43:57;;;;;;;;;;;;;;;;;;5063780;28;1215;-53
2023/08/31 01:46:22;;;;;;;;;;;;;;;;;;5081388;28;5083;-54
2023/08/31 01:48:47;;;;;;;;;;;;;;;;;;5060468;28;4543;-52
2023/08/31 01:51:12;;;;;;;;;;;;;;;;;;5080385;28;5143;-52
2023/08/31 01:53:38;;;;;;;;;;;;;;;;;;5078863;28;4995;-55
2023/08/31 01:56:04;;;;;;;;;;;;;;;;;;5073924;28;3220;-54
2023/08/31 01:58:30;;;;;;;;;;;;;;;;;;5075975;28;4995;-52
2023/08/31 02:00:56;;;;;;;;;;;;;;;;;;5067557;28;4825;-55
2023/08/31 02:03:21;;;;;;;;;;;;;;;;;;5073475;28;5003;-54
2023/08/31 02:05:47;;;;;;;;;;;;;;;;;;5068888;28;5051;-54
2023/08/31 02:08:12;;;;;;;;;;;;;;;;;;5077872;28;5158;-54
2023/08/31 02:10:37;;;;;;;;;;;;;;;;;;5073220;28;3453;-54
2023/08/31 02:13:03;;;;;;;;;;;;;;;;;;5076692;28;5044;-54
2023/08/31 02:15:28;;;;;;;;;;;;;;;;;;5060662;28;4470;-52
2023/08/31 02:17:54;;;;;;;;;;;;;;;;;;5049163;28;4488;-51
2023/08/31 02:20:20;;;;;;;;;;;;;;;;;;5048473;28;5128;-54
2023/08/31 02:22:45;;;;;;;;;;;;;;;;;;5076602;28;3300;-52
2023/08/31 02:25:11;;;;;;;;;;;;;;;;;;5067363;28;5337;-54
2023/08/31 02:27:36;;;;;;;;;;;;;;;;;;5085421;28;5009;-55
2023/08/31 02:30:04;;;;;;;;;;;;;;;;;;5073153;28;4591;-54
2023/08/31 02:32:29;;;;;;;;;;;;;;;;;;5072835;28;5049;-53
2023/08/31 02:34:55;;;;;;;;;;;;;;;;;;5076037;28;3244;-52
2023/08/31 02:37:20;;;;;;;;;;;;;;;;;;5075635;28;4574;-54
2023/08/31 02:39:45;;;;;;;;;;;;;;;;;;5078911;28;5042;-53
2023/08/31 02:42:10;;;;;;;;;;;;;;;;;;5077354;28;4471;-53
2023/08/31 02:44:36;;;;;;;;;;;;;;;;;;5075585;28;5050;-52
2023/08/31 02:47:01;;;;;;;;;;;;;;;;;;5070030;28;1172;-53
2023/08/31 02:49:27;;;;;;;;;;;;;;;;;;5073710;28;5025;-52
2023/08/31 02:51:52;;;;;;;;;;;;;;;;;;5074426;28;4602;-53
2023/08/31 02:54:19;;;;;;;;;;;;;;;;;;5073965;28;4949;-54
2023/08/31 02:56:44;;;;;;;;;;;;;;;;;;5080288;28;5139;-50
2023/08/31 02:59:09;;;;;;;;;;;;;;;;;;5098300;28;4452;-55
2023/08/31 03:01:35;;;;;;;;;;;;;;;;;;5092590;28;2244;-55
2023/08/31 03:04:00;;;;;;;;;;;;;;;;;;5091333;28;5085;-54
2023/08/31 03:06:25;;;;;;;;;;;;;;;;;;5091682;28;5735;-55
2023/08/31 03:08:51;;;;;;;;;;;;;;;;;;5103284;28;5020;-52
2023/08/31 03:11:16;;;;;;;;;;;;;;;;;;5096743;28;4661;-54
2023/08/31 03:13:41;;;;;;;;;;;;;;;;;;5102076;28;1100;-52
2023/08/31 03:16:07;;;;;;;;;;;;;;;;;;5101463;28;4974;-55
2023/08/31 03:18:32;;;;;;;;;;;;;;;;;;5071591;28;5113;-53
2023/08/31 03:20:58;;;;;;;;;;;;;;;;;;5081879;28;4415;-54
2023/08/31 03:23:23;;;;;;;;;;;;;;;;;;5069309;28;4684;-54
2023/08/31 03:25:48;;;;;;;;;;;;;;;;;;5068781;28;1289;-52
2023/08/31 03:28:13;;;;;;;;;;;;;;;;;;5071122;28;5081;-54
2023/08/31 03:30:39;;;;;;;;;;;;;;;;;;5068399;28;5057;-54
2023/08/31 03:33:04;;;;;;;;;;;;;;;;;;5075560;28;5060;-54
2023/08/31 03:35:31;;;;;;;;;;;;;;;;;;5070308;28;4856;-54
2023/08/31 03:37:56;;;;;;;;;;;;;;;;;;5075307;28;3319;-54
2023/08/31 03:40:22;;;;;;;;;;;;;;;;;;5075062;28;4956;-53
2023/08/31 03:42:48;;;;;;;;;;;;;;;;;;5068045;28;5063;-53
2023/08/31 03:45:13;;;;;;;;;;;;;;;;;;5073422;28;5057;-50
2023/08/31 03:47:38;;;;;;;;;;;;;;;;;;5070022;28;5057;-54
2023/08/31 03:50:04;;;;;;;;;;;;;;;;;;5076343;28;1217;-54
2023/08/31 03:52:29;;;;;;;;;;;;;;;;;;5072165;28;4951;-55
2023/08/31 03:54:55;;;;;;;;;;;;;;;;;;5079079;28;4620;-53
2023/08/31 03:57:20;;;;;;;;;;;;;;;;;;5086797;28;5046;-53
2023/08/31 03:59:45;;;;;;;;;;;;;;;;;;5084410;28;4449;-54
2023/08/31 04:02:11;;;;;;;;;;;;;;;;;;5092604;28;4539;-54
2023/08/31 04:04:36;;;;;;;;;;;;;;;;;;5096947;28;1179;-54
2023/08/31 04:07:01;;;;;;;;;;;;;;;;;;5093370;28;5036;-54
2023/08/31 04:09:27;;;;;;;;;;;;;;;;;;5098529;28;5003;-52
2023/08/31 04:11:52;;;;;;;;;;;;;;;;;;5095641;28;5001;-53
2023/08/31 04:14:18;;;;;;;;;;;;;;;;;;5096196;28;4985;-54
2023/08/31 04:16:43;;;;;;;;;;;;;;;;;;5092208;28;1103;-53
2023/08/31 04:19:09;;;;;;;;;;;;;;;;;;5102345;28;5069;-54
2023/08/31 04:21:34;;;;;;;;;;;;;;;;;;5104895;28;4456;-54
2023/08/31 04:24:00;;;;;;;;;;;;;;;;;;5093176;28;4449;-55
2023/08/31 04:26:25;;;;;;;;;;;;;;;;;;5102050;28;5214;-54
2023/08/31 04:28:50;;;;;;;;;;;;;;;;;;5101986;28;1145;-54
2023/08/31 04:31:15;;;;;;;;;;;;;;;;;;5071212;28;5086;-55
2023/08/31 04:33:41;;;;;;;;;;;;;;;;;;5088274;28;5174;-55
2023/08/31 04:36:06;;;;;;;;;;;;;;;;;;5089497;28;5445;-54
2023/08/31 04:38:31;;;;;;;;;;;;;;;;;;5098813;28;5041;-52
2023/08/31 04:41:00;;;;;;;;;;;;;;;;;;5092888;28;1917;-53
2023/08/31 04:43:25;;;;;;;;;;;;;;;;;;5094156;28;4901;-52
2023/08/31 04:45:51;;;;;;;;;;;;;;;;;;5091794;28;5048;-52
2023/08/31 04:48:16;;;;;;;;;;;;;;;;;;5077420;28;4509;-52
2023/08/31 04:50:41;;;;;;;;;;;;;;;;;;5060889;28;4713;-52
2023/08/31 04:53:07;;;;;;;;;;;;;;;;;;5077324;28;3228;-52
2023/08/31 04:55:32;;;;;;;;;;;;;;;;;;5073025;28;5014;-49
2023/08/31 04:57:57;;;;;;;;;;;;;;;;;;5053504;28;4600;-54
2023/08/31 05:00:22;;;;;;;;;;;;;;;;;;5051713;28;5020;-53
2023/08/31 05:02:48;;;;;;;;;;;;;;;;;;5048233;28;4527;-54
2023/08/31 05:05:13;;;;;;;;;;;;;;;;;;5056629;28;5202;-53
2023/08/31 05:07:38;;;;;;;;;;;;;;;;;;5061325;28;1155;-53
2023/08/31 05:10:04;;;;;;;;;;;;;;;;;;5059358;28;4991;-53
2023/08/31 05:12:29;;;;;;;;;;;;;;;;;;5054846;28;5037;-52
2023/08/31 05:14:54;;;;;;;;;;;;;;;;;;5061285;28;5099;-52
2023/08/31 05:17:21;;;;;;;;;;;;;;;;;;5067349;28;5178;-51
2023/08/31 05:19:47;;;;;;;;;;;;;;;;;;5060429;28;1143;-52
2023/08/31 05:22:12;;;;;;;;;;;;;;;;;;5060583;28;4465;-53
2023/08/31 05:24:37;;;;;;;;;;;;;;;;;;5064821;28;5088;-54
2023/08/31 05:27:02;;;;;;;;;;;;;;;;;;5053970;28;5046;-54
2023/08/31 05:29:29;;;;;;;;;;;;;;;;;;5055211;28;5102;-53
2023/08/31 05:31:54;;;;;;;;;;;;;;;;;;5044414;28;5012;-50
2023/08/31 05:34:25;;;;;;;;;;;;;;;;;;5044105;28;5107;-52
2023/08/31 05:36:50;;;;;;;;;;;;;;;;;;5053663;28;5134;-53
2023/08/31 05:39:16;;;;;;;;;;;;;;;;;;5052447;28;4992;-54
2023/08/31 05:41:42;;;;;;;;;;;;;;;;;;5043773;28;5020;-53
2023/08/31 05:44:07;;;;;;;;;;;;;;;;;;5055406;28;3371;-54
2023/08/31 05:46:33;;;;;;;;;;;;;;;;;;5053288;28;4394;-53
2023/08/31 05:48:58;;;;;;;;;;;;;;;;;;5049029;28;5108;-54
2023/08/31 05:51:24;;;;;;;;;;;;;;;;;;5031245;28;5081;-54
2023/08/31 05:53:49;;;;;;;;;;;;;;;;;;5052212;28;5036;-55
2023/08/31 05:56:14;;;;;;;;;;;;;;;;;;5063788;28;5152;-56
2023/08/31 05:58:39;;;;;;;;;;;;;;;;;;5093258;28;3266;-57
2023/08/31 06:01:05;;;;;;;;;;;;;;;;;;5090087;28;5106;-57
2023/08/31 06:03:30;;;;;;;;;;;;;;;;;;5084981;28;4430;-56
2023/08/31 06:05:57;;;;;;;;;;;;;;;;;;5074718;28;5233;-60
2023/08/31 06:08:22;;;;;;;;;;;;;;;;;;5082732;28;5097;-61
2023/08/31 06:10:48;;;;;;;;;;;;;;;;;;5094006;28;3312;-59
2023/08/31 06:13:13;;;;;;;;;;;;;;;;;;5090083;28;4954;-59
2023/08/31 06:15:38;;;;;;;;;;;;;;;;;;5088294;28;5158;-61
2023/08/31 06:18:04;;;;;;;;;;;;;;;;;;5070604;28;5305;-62
2023/08/31 06:20:30;;;;;;;;;;;;;;;;;;5093906;28;4967;-67
2023/08/31 06:22:55;;;;;;;;;;;;;;;;;;5090909;28;1938;-63
2023/08/31 06:25:22;;;;;;;;;;;;;;;;;;5095789;28;5034;-57
2023/08/31 06:27:47;;;;;;;;;;;;;;;;;;5093716;28;4949;-56
2023/08/31 06:30:15;;;;;;;;;;;;;;;;;;5093597;28;4981;-58
2023/08/31 06:32:42;;;;;;;;;;;;;;;;;;5090933;28;4978;-57
2023/08/31 06:35:07;;;;;;;;;;;;;;;;;;5099337;28;3394;-57
2023/08/31 06:37:32;;;;;;;;;;;;;;;;;;5088892;28;5028;-57
2023/08/31 06:39:58;;;;;;;;;;;;;;;;;;5086203;28;4801;-57
2023/08/31 06:42:23;;;;;;;;;;;;;;;;;;5074783;28;4969;-61
2023/08/31 06:44:48;;;;;;;;;;;;;;;;;;5074834;28;5080;-58
2023/08/31 06:47:16;;;;;;;;;;;;;;;;;;5065833;28;4555;-58
2023/08/31 06:49:41;;;;;;;;;;;;;;;;;;5070403;28;3292;-58
2023/08/31 06:52:07;;;;;;;;;;;;;;;;;;5066163;28;5004;-58
2023/08/31 06:54:33;;;;;;;;;;;;;;;;;;5073340;28;5059;-60
2023/08/31 06:56:58;;;;;;;;;;;;;;;;;;5068906;28;5224;-58
2023/08/31 06:59:24;;;;;;;;;;;;;;;;;;5048230;28;4538;-59
2023/08/31 07:01:49;;;;;;;;;;;;;;;;;;5062118;28;3383;-61
2023/08/31 07:04:15;;;;;;;;;;;;;;;;;;5062930;28;5008;-63
2023/08/31 07:06:40;;;;;;;;;;;;;;;;;;5066946;28;4862;-62
2023/08/31 07:09:06;;;;;;;;;;;;;;;;;;5071120;28;5110;-60
2023/08/31 07:11:32;;;;;;;;;;;;;;;;;;5071306;28;5065;-64
2023/08/31 07:13:57;;;;;;;;;;;;;;;;;;5067053;28;3317;-59
2023/08/31 07:16:22;;;;;;;;;;;;;;;;;;5069829;28;4954;-59
2023/08/31 07:18:48;;;;;;;;;;;;;;;;;;5071791;28;4893;-61
2023/08/31 07:21:13;;;;;;;;;;;;;;;;;;5076891;28;5028;-60
2023/08/31 07:23:38;;;;;;;;;;;;;;;;;;5074635;28;5094;-61
2023/08/31 07:26:04;;;;;;;;;;;;;;;;;;5075333;28;3283;-63
2023/08/31 07:28:30;;;;;;;;;;;;;;;;;;5069647;28;4969;-62
2023/08/31 07:31:06;;;;;;;;;;;;;;;;;;5063557;28;4463;-61
2023/08/31 07:33:32;;;;;;;;;;;;;;;;;;5086729;28;4860;-63
2023/08/31 07:35:58;;;;;;;;;;;;;;;;;;5078864;28;5022;-61
2023/08/31 07:38:23;;;;;;;;;;;;;;;;;;5073700;28;5152;-60
2023/08/31 07:40:48;;;;;;;;;;;;;;;;;;5078808;28;1902;-59
2023/08/31 07:43:14;;;;;;;;;;;;;;;;;;5070600;28;4974;-59
2023/08/31 07:45:39;;;;;;;;;;;;;;;;;;5076684;28;4925;-60
2023/08/31 07:48:05;;;;;;;;;;;;;;;;;;5046103;28;5144;-61
2023/08/31 07:50:31;;;;;;;;;;;;;;;;;;5068644;28;5009;-59
2023/08/31 07:52:56;;;;;;;;;;;;;;;;;;5072523;28;3442;-58
2023/08/31 07:55:21;;;;;;;;;;;;;;;;;;5068235;28;4490;-59
2023/08/31 07:57:46;;;;;;;;;;;;;;;;;;5080252;28;4869;-59
2023/08/31 08:00:14;;;;;;;;;;;;;;;;;;5085432;28;4904;-62
2023/08/31 08:02:40;;;;;;;;;;;;;;;;;;5082559;28;5320;-61
2023/08/31 08:05:05;;;;;;;;;;;;;;;;;;5064746;28;1301;-62
2023/08/31 08:07:31;;;;;;;;;;;;;;;;;;5064169;28;4387;-64
2023/08/31 08:09:56;;;;;;;;;;;;;;;;;;5066153;28;4479;-63
2023/08/31 08:12:21;;;;;;;;;;;;;;;;;;5067032;28;5157;-62
2023/08/31 08:14:46;;;;;;;;;;;;;;;;;;5059298;28;5159;-60
2023/08/31 08:17:12;;;;;;;;;;;;;;;;;;5061619;28;4817;-61
2023/08/31 08:19:37;;;;;;;;;;;;;;;;;;5065529;28;3312;-62
2023/08/31 08:22:03;;;;;;;;;;;;;;;;;;5062852;28;4986;-65
2023/08/31 08:24:28;;;;;;;;;;;;;;;;;;5057296;28;4490;-61
2023/08/31 08:26:54;;;;;;;;;;;;;;;;;;5060354;28;5082;-65
2023/08/31 08:29:19;;;;;;;;;;;;;;;;;;5058996;28;4696;-60
2023/08/31 08:31:44;;;;;;;;;;;;;;;;;;5064490;28;5238;-61
2023/08/31 08:34:09;;;;;;;;;;;;;;;;;;5063656;28;5007;-61
2023/08/31 08:36:35;;;;;;;;;;;;;;;;;;5064682;28;5093;-61
2023/08/31 08:39:00;;;;;;;;;;;;;;;;;;5066421;28;5152;-61
2023/08/31 08:41:25;;;;;;;;;;;;;;;;;;5056006;28;5384;-61
2023/08/31 08:43:50;;;;;;;;;;;;;;;;;;5039972;28;3400;-61
2023/08/31 08:46:16;;;;;;;;;;;;;;;;;;5078249;28;4439;-61
2023/08/31 08:48:41;;;;;;;;;;;;;;;;;;5086376;28;4506;-61
2023/08/31 08:51:07;;;;;;;;;;;;;;;;;;5084847;28;5250;-61
2023/08/31 08:53:32;;;;;;;;;;;;;;;;;;5090308;28;4870;-60
2023/08/31 08:55:58;;;;;;;;;;;;;;;;;;5081013;28;2638;-60
2023/08/31 08:58:23;;;;;;;;;;;;;;;;;;5059730;28;5067;-61
2023/08/31 09:00:48;;;;;;;;;;;;;;;;;;5039925;28;5777;-61
2023/08/31 09:03:13;;;;;;;;;;;;;;;;;;5066227;28;4480;-61
2023/08/31 09:05:39;;;;;;;;;;;;;;;;;;5066375;28;4551;-61
2023/08/31 09:08:09;;;;;;;;;;;;;;;;;;5062714;28;1329;-60
2023/08/31 09:10:39;;;;;;;;;;;;;;;;;;5058667;28;4793;-61
2023/08/31 09:13:10;;;;;;;;;;;;;;;;;;5065471;28;4443;-61
2023/08/31 09:15:39;;;;;;;;;;;;;;;;;;5066379;28;5055;-60
2023/08/31 09:18:05;;;;;;;;;;;;;;;;;;5059723;28;5042;-61
2023/08/31 09:20:30;;;;;;;;;;;;;;;;;;5066134;28;4867;-61
2023/08/31 09:22:56;;;;;;;;;;;;;;;;;;5082343;28;1917;-61
2023/08/31 09:25:21;;;;;;;;;;;;;;;;;;5062158;28;4395;-61
2023/08/31 09:27:47;;;;;;;;;;;;;;;;;;5060403;28;4968;-62
2023/08/31 09:30:12;;;;;;;;;;;;;;;;;;5061543;28;4998;-60
2023/08/31 09:32:37;;;;;;;;;;;;;;;;;;5051530;28;5310;-68
2023/08/31 09:35:03;;;;;;;;;;;;;;;;;;5056266;28;3319;-66
2023/08/31 09:37:29;;;;;;;;;;;;;;;;;;5063476;28;4761;-66
2023/08/31 09:39:54;;;;;;;;;;;;;;;;;;5063984;28;5618;-63
2023/08/31 09:42:20;;;;;;;;;;;;;;;;;;5061339;28;4975;-65
2023/08/31 09:44:45;;;;;;;;;;;;;;;;;;5063636;28;5025;-65
2023/08/31 09:47:11;;;;;;;;;;;;;;;;;;5064353;28;4940;-67
2023/08/31 09:49:36;;;;;;;;;;;;;;;;;;5058756;28;1400;-66
2023/08/31 09:52:03;;;;;;;;;;;;;;;;;;5062202;28;5014;-67
2023/08/31 09:54:28;;;;;;;;;;;;;;;;;;5065368;28;5011;-68
2023/08/31 09:56:53;;;;;;;;;;;;;;;;;;5058438;28;5055;-67
2023/08/31 09:59:18;;;;;;;;;;;;;;;;;;5066395;28;4820;-66
2023/08/31 10:01:47;;;;;;;;;;;;;;;;;;5063831;28;3167;-65
2023/08/31 10:04:12;;;;;;;;;;;;;;;;;;5069467;28;4368;-66
2023/08/31 10:06:41;;;;;;;;;;;;;;;;;;5065489;28;5128;-66
2023/08/31 10:09:06;;;;;;;;;;;;;;;;;;5057933;28;4952;-65
2023/08/31 10:11:31;;;;;;;;;;;;;;;;;;5060757;28;5011;-67
2023/08/31 10:13:57;;;;;;;;;;;;;;;;;;5049040;28;1250;-67
2023/08/31 10:16:22;;;;;;;;;;;;;;;;;;5046912;28;5004;-68
2023/08/31 10:18:48;;;;;;;;;;;;;;;;;;5048892;28;5018;-64
2023/08/31 10:21:17;;;;;;;;;;;;;;;;;;5040235;28;5109;-68
2023/08/31 10:23:46;;;;;;;;;;;;;;;;;;5045302;28;5018;-63
2023/08/31 10:26:11;;;;;;;;;;;;;;;;;;5061916;28;5192;-64
2023/08/31 10:28:40;;;;;;;;;;;;;;;;;;5074468;28;3317;-62
2023/08/31 10:31:06;;;;;;;;;;;;;;;;;;5058549;28;5085;-63
2023/08/31 10:33:34;;;;;;;;;;;;;;;;;;5066910;28;5048;-63
2023/08/31 10:36:00;;;;;;;;;;;;;;;;;;5064886;28;4427;-63
2023/08/31 10:38:26;;;;;;;;;;;;;;;;;;5059054;28;4976;-63
2023/08/31 10:41:00;;;;;;;;;;;;;;;;;;5046171;28;1985;-65
2023/08/31 10:43:26;;;;;;;;;;;;;;;;;;5057793;28;4926;-66
2023/08/31 10:45:51;;;;;;;;;;;;;;;;;;5066954;28;5029;-64
2023/08/31 10:48:17;;;;;;;;;;;;;;;;;;5048165;28;4504;-65
2023/08/31 10:50:43;;;;;;;;;;;;;;;;;;5043798;28;4852;-65
2023/08/31 10:53:08;;;;;;;;;;;;;;;;;;5050288;28;1948;-62
2023/08/31 10:55:34;;;;;;;;;;;;;;;;;;5056519;28;4560;-61
2023/08/31 10:57:59;;;;;;;;;;;;;;;;;;5062166;28;4960;-61
2023/08/31 11:00:43;;;;;;;;;;;;;;;;;;5059429;28;5345;-60
2023/08/31 11:03:11;;;;;;;;;;;;;;;;;;5064245;28;5022;-56
2023/08/31 11:05:36;;;;;;;;;;;;;;;;;;5060044;28;4595;-55
2023/08/31 11:08:01;;;;;;;;;;;;;;;;;;5064894;28;3303;-55
2023/08/31 11:10:29;;;;;;;;;;;;;;;;;;5059386;28;5079;-54
2023/08/31 11:12:54;;;;;;;;;;;;;;;;;;5067979;28;4974;-54
2023/08/31 11:15:20;;;;;;;;;;;;;;;;;;5065169;28;5102;-54
2023/08/31 11:17:48;;;;;;;;;;;;;;;;;;5069582;28;4827;-56
2023/08/31 11:20:14;;;;;;;;;;;;;;;;;;5067282;28;4489;-56
2023/08/31 11:22:40;;;;;;;;;;;;;;;;;;5067869;28;1921;-56
2023/08/31 11:25:06;;;;;;;;;;;;;;;;;;5065859;28;4990;-56
2023/08/31 11:27:31;;;;;;;;;;;;;;;;;;5082770;28;5066;-55
2023/08/31 11:29:57;;;;;;;;;;;;;;;;;;5063690;28;5020;-58
2023/08/31 11:32:25;;;;;;;;;;;;;;;;;;5062311;28;5075;-57
2023/08/31 11:34:50;;;;;;;;;;;;;;;;;;5063037;28;3315;-55
2023/08/31 11:37:15;;;;;;;;;;;;;;;;;;5065762;28;5070;-57
2023/08/31 11:39:42;;;;;;;;;;;;;;;;;;5065310;28;5042;-58
2023/08/31 11:42:07;;;;;;;;;;;;;;;;;;5055566;28;5122;-56
2023/08/31 11:44:32;;;;;;;;;;;;;;;;;;5064984;28;5029;-57
2023/08/31 11:46:57;;;;;;;;;;;;;;;;;;5066252;28;1619;-57
2023/08/31 11:49:23;;;;;;;;;;;;;;;;;;5079249;28;5013;-57
2023/08/31 11:51:49;;;;;;;;;;;;;;;;;;5059222;28;5120;-55
2023/08/31 11:54:15;;;;;;;;;;;;;;;;;;5067706;28;5157;-56
2023/08/31 11:56:46;;;;;;;;;;;;;;;;;;5067323;28;4890;-57
2023/08/31 11:59:14;;;;;;;;;;;;;;;;;;5040238;28;5028;-56
2023/08/31 12:01:40;;;;;;;;;;;;;;;;;;5049778;28;3438;-64
2023/08/31 12:04:25;;;;;;;;;;;;;;;;;;5061515;28;5055;-49
2023/08/31 12:06:51;;;;;;;;;;;;;;;;;;5061839;28;5072;-59
2023/08/31 12:09:16;;;;;;;;;;;;;;;;;;5060276;28;4691;-65
2023/08/31 12:11:41;;;;;;;;;;;;;;;;;;5064601;28;5035;-61
2023/08/31 12:14:19;;;;;;;;;;;;;;;;;;5044655;28;3251;-60
2023/08/31 12:16:44;;;;;;;;;;;;;;;;;;5063772;28;4528;-60
2023/08/31 12:19:09;;;;;;;;;;;;;;;;;;5060788;28;4524;-59
2023/08/31 12:21:34;;;;;;;;;;;;;;;;;;5062708;28;5041;-59
2023/08/31 12:24:00;;;;;;;;;;;;;;;;;;5063225;28;4656;-60
2023/08/31 12:26:25;;;;;;;;;;;;;;;;;;5060443;28;5141;-60
2023/08/31 12:28:51;;;;;;;;;;;;;;;;;;5064637;28;1916;-60
2023/08/31 12:31:16;;;;;;;;;;;;;;;;;;5065663;28;5046;-60
2023/08/31 12:33:41;;;;;;;;;;;;;;;;;;5059641;28;4454;-57
2023/08/31 12:36:07;;;;;;;;;;;;;;;;;;5047695;28;5676;-53
2023/08/31 12:38:33;;;;;;;;;;;;;;;;;;5079832;28;5042;-56
2023/08/31 12:40:58;;;;;;;;;;;;;;;;;;5067014;28;2609;-56
2023/08/31 12:43:23;;;;;;;;;;;;;;;;;;5061264;28;5169;-55
2023/08/31 12:45:49;;;;;;;;;;;;;;;;;;5066523;28;4852;-56
2023/08/31 12:48:14;;;;;;;;;;;;;;;;;;5065599;28;4651;-53
2023/08/31 12:50:39;;;;;;;;;;;;;;;;;;5066365;28;5047;-57
2023/08/31 12:53:04;;;;;;;;;;;;;;;;;;5064974;28;3319;-54
2023/08/31 12:55:30;;;;;;;;;;;;;;;;;;5059966;28;4963;-56
2023/08/31 12:57:55;;;;;;;;;;;;;;;;;;5064449;28;5048;-57
2023/08/31 13:00:21;;;;;;;;;;;;;;;;;;5064174;28;4479;-56
2023/08/31 13:02:46;;;;;;;;;;;;;;;;;;5064430;28;5152;-54
2023/08/31 13:05:11;;;;;;;;;;;;;;;;;;5064305;28;5082;-55
2023/08/31 13:07:37;;;;;;;;;;;;;;;;;;5066888;28;1226;-57
2023/08/31 13:10:03;;;;;;;;;;;;;;;;;;5045763;28;5061;-57
2023/08/31 13:12:29;;;;;;;;;;;;;;;;;;5054552;28;4560;-54
2023/08/31 13:14:54;;;;;;;;;;;;;;;;;;5050342;28;4552;-57
2023/08/31 13:17:19;;;;;;;;;;;;;;;;;;5052760;28;4591;-56
2023/08/31 13:19:45;;;;;;;;;;;;;;;;;;5048770;28;1310;-53
2023/08/31 13:22:15;;;;;;;;;;;;;;;;;;5048958;28;5109;-56
2023/08/31 13:24:40;;;;;;;;;;;;;;;;;;5043626;28;5044;-56
2023/08/31 13:27:05;;;;;;;;;;;;;;;;;;5045291;28;4948;-54
2023/08/31 13:29:30;;;;;;;;;;;;;;;;;;5043338;28;5079;-58
2023/08/31 13:31:56;;;;;;;;;;;;;;;;;;5043290;28;4989;-58
2023/08/31 13:34:21;;;;;;;;;;;;;;;;;;5067743;28;4784;-59
2023/08/31 13:36:46;;;;;;;;;;;;;;;;;;5069940;28;5165;-59
2023/08/31 13:39:11;;;;;;;;;;;;;;;;;;5055742;28;4993;-58
2023/08/31 13:41:37;;;;;;;;;;;;;;;;;;5063995;28;5036;-58
2023/08/31 13:44:02;;;;;;;;;;;;;;;;;;5070117;28;3250;-59
2023/08/31 13:46:27;;;;;;;;;;;;;;;;;;5066929;28;5040;-59
2023/08/31 13:48:53;;;;;;;;;;;;;;;;;;5070307;28;5067;-59
2023/08/31 13:51:18;;;;;;;;;;;;;;;;;;5067685;28;5001;-59
2023/08/31 13:53:43;;;;;;;;;;;;;;;;;;5067091;28;4900;-58
2023/08/31 13:56:08;;;;;;;;;;;;;;;;;;5068315;28;4465;-59
2023/08/31 13:58:34;;;;;;;;;;;;;;;;;;5050421;28;1321;-59
2023/08/31 14:01:03;;;;;;;;;;;;;;;;;;5046234;28;4454;-58
2023/08/31 14:03:28;;;;;;;;;;;;;;;;;;5049866;28;4947;-58
2023/08/31 14:05:54;;;;;;;;;;;;;;;;;;5047686;28;5151;-58
2023/08/31 14:08:19;;;;;;;;;;;;;;;;;;5061205;28;4447;-58
2023/08/31 14:10:44;;;;;;;;;;;;;;;;;;5070474;28;1429;-57
2023/08/31 14:13:09;;;;;;;;;;;;;;;;;;5069153;28;5098;-57
2023/08/31 14:15:36;;;;;;;;;;;;;;;;;;5058997;28;4996;-58
2023/08/31 14:18:01;;;;;;;;;;;;;;;;;;5068966;28;4501;-59
2023/08/31 14:20:26;;;;;;;;;;;;;;;;;;5052974;28;4485;-64
2023/08/31 14:22:52;;;;;;;;;;;;;;;;;;5061177;28;3488;-61
2023/08/31 14:25:17;;;;;;;;;;;;;;;;;;5059899;28;5003;-60
2023/08/31 14:27:42;;;;;;;;;;;;;;;;;;5063533;28;5097;-59
2023/08/31 14:30:08;;;;;;;;;;;;;;;;;;5063407;28;5084;-58
2023/08/31 14:32:33;;;;;;;;;;;;;;;;;;5067860;28;5447;-58
2023/08/31 14:34:58;;;;;;;;;;;;;;;;;;5062617;28;1317;-58
2023/08/31 14:37:24;;;;;;;;;;;;;;;;;;5068850;28;4901;-59
2023/08/31 14:39:49;;;;;;;;;;;;;;;;;;5068343;28;4397;-60
2023/08/31 14:42:16;;;;;;;;;;;;;;;;;;5064722;28;5171;-59
2023/08/31 14:44:41;;;;;;;;;;;;;;;;;;5059281;28;5130;-58
2023/08/31 14:47:06;;;;;;;;;;;;;;;;;;5047653;28;1173;-59
2023/08/31 14:49:32;;;;;;;;;;;;;;;;;;5035930;28;4490;-58
2023/08/31 14:51:57;;;;;;;;;;;;;;;;;;5041884;28;5097;-59
2023/08/31 14:54:23;;;;;;;;;;;;;;;;;;5055425;28;5032;-59
2023/08/31 14:56:48;;;;;;;;;;;;;;;;;;5072551;28;5061;-63
2023/08/31 14:59:14;;;;;;;;;;;;;;;;;;5066849;28;4983;-59
2023/08/31 15:01:39;;;;;;;;;;;;;;;;;;5081801;28;3424;-60
2023/08/31 15:04:04;;;;;;;;;;;;;;;;;;5078299;28;5121;-66
2023/08/31 15:06:32;;;;;;;;;;;;;;;;;;5087170;28;4799;-72
2023/08/31 15:08:57;;;;;;;;;;;;;;;;;;5065311;28;5307;-71
2023/08/31 15:11:23;;;;;;;;;;;;;;;;;;5088294;28;5152;-65
2023/08/31 15:13:48;;;;;;;;;;;;;;;;;;5064095;28;3405;-65
2023/08/31 15:16:13;;;;;;;;;;;;;;;;;;5081217;28;4987;-65
2023/08/31 15:18:39;;;;;;;;;;;;;;;;;;5077657;28;4864;-62
2023/08/31 15:21:04;;;;;;;;;;;;;;;;;;5082860;28;5087;-60
2023/08/31 15:23:29;;;;;;;;;;;;;;;;;;5085307;28;5098;-63
2023/08/31 15:26:01;;;;;;;;;;;;;;;;;;5085183;28;3223;-60
2023/08/31 15:28:26;;;;;;;;;;;;;;;;;;5085319;28;5001;-59
2023/08/31 15:30:51;;;;;;;;;;;;;;;;;;5088436;28;5097;-69
2023/08/31 15:33:17;;;;;;;;;;;;;;;;;;5091191;28;5079;-60
2023/08/31 15:35:42;;;;;;;;;;;;;;;;;;5085392;28;5174;-64
2023/08/31 15:38:07;;;;;;;;;;;;;;;;;;5087775;28;3030;-57
2023/08/31 15:40:32;;;;;;;;;;;;;;;;;;5090794;28;5048;-54
2023/08/31 15:42:58;;;;;;;;;;;;;;;;;;5086907;28;4916;-56
2023/08/31 15:45:23;;;;;;;;;;;;;;;;;;5088445;28;5058;-55
2023/08/31 15:47:48;;;;;;;;;;;;;;;;;;5074131;28;5184;-64
2023/08/31 15:50:13;;;;;;;;;;;;;;;;;;5088182;28;5109;-55
2023/08/31 15:52:39;;;;;;;;;;;;;;;;;;5080539;28;1100;-53
2023/08/31 15:55:07;;;;;;;;;;;;;;;;;;5081144;28;5018;-56
2023/08/31 15:57:36;;;;;;;;;;;;;;;;;;5064059;28;4883;-61
2023/08/31 16:00:04;;;;;;;;;;;;;;;;;;5056928;28;5077;-62
2023/08/31 16:02:30;;;;;;;;;;;;;;;;;;5046981;28;4761;-62
2023/08/31 16:04:55;;;;;;;;;;;;;;;;;;5063773;28;3284;-56
2023/08/31 16:07:20;;;;;;;;;;;;;;;;;;5068974;28;5137;-64
2023/08/31 16:09:47;;;;;;;;;;;;;;;;;;5045142;28;5424;-57
2023/08/31 16:12:12;;;;;;;;;;;;;;;;;;5079013;28;5015;-58
2023/08/31 16:14:38;;;;;;;;;;;;;;;;;;5061900;28;4798;-58
2023/08/31 16:17:03;;;;;;;;;;;;;;;;;;5061142;28;3355;-59
2023/08/31 16:19:28;;;;;;;;;;;;;;;;;;5043501;28;6009;-57
2023/08/31 16:21:54;;;;;;;;;;;;;;;;;;5064826;28;4997;-55
2023/08/31 16:24:19;;;;;;;;;;;;;;;;;;5062862;28;5079;-56
2023/08/31 16:26:44;;;;;;;;;;;;;;;;;;5059010;28;4793;-56
2023/08/31 16:29:09;;;;;;;;;;;;;;;;;;5066398;28;5007;-56
2023/08/31 16:31:35;;;;;;;;;;;;;;;;;;5039676;28;5234;-56
2023/08/31 16:34:00;;;;;;;;;;;;;;;;;;5047303;28;5127;-57
2023/08/31 16:36:25;;;;;;;;;;;;;;;;;;5057866;28;4718;-57
2023/08/31 16:38:51;;;;;;;;;;;;;;;;;;5061393;28;5168;-56
2023/08/31 16:41:16;;;;;;;;;;;;;;;;;;5056005;28;5043;-57
2023/08/31 16:43:41;;;;;;;;;;;;;;;;;;5044493;28;1391;-57
2023/08/31 16:46:07;;;;;;;;;;;;;;;;;;5045018;28;4818;-57
2023/08/31 16:48:32;;;;;;;;;;;;;;;;;;5051508;28;5128;-56
2023/08/31 16:50:57;;;;;;;;;;;;;;;;;;5058314;28;5021;-68
2023/08/31 16:53:23;;;;;;;;;;;;;;;;;;5062094;28;4922;-63